sensor_id;sensor_type;location;lat;lon;timestamp;P1;durP1;ratioP1;P2;durP2;ratioP2
59273;SDS011;45044;41.572;24.730;2023-03-14T00:00:07;29.57;;;17.20;;
59273;SDS011;45044;41.572;24.730;2023-03-14T00:02:37;29.07;;;15.80;;
59273;SDS011;45044;41.572;24.730;2023-03-14T00:05:05;43.30;;;20.50;;
59273;SDS011;45044;41.572;24.730;2023-03-14T00:07:36;46.33;;;23.43;;
59273;SDS011;45044;41.572;24.730;2023-03-14T00:10:05;27.50;;;15.53;;
59273;SDS011;45044;41.572;24.730;2023-03-14T00:12:34;21.77;;;11.53;;
59273;SDS011;45044;41.572;24.730;2023-03-14T00:15:01;17.80;;;9.53;;
59273;SDS011;45044;41.572;24.730;2023-03-14T00:17:34;29.80;;;13.90;;
59273;SDS011;45044;41.572;24.730;2023-03-14T00:20:06;22.43;;;12.47;;
59273;SDS011;45044;41.572;24.730;2023-03-14T00:22:38;28.83;;;12.57;;
59273;SDS011;45044;41.572;24.730;2023-03-14T00:25:05;19.70;;;10.93;;
59273;SDS011;45044;41.572;24.730;2023-03-14T00:27:35;19.17;;;11.00;;
59273;SDS011;45044;41.572;24.730;2023-03-14T00:30:02;19.30;;;11.53;;
59273;SDS011;45044;41.572;24.730;2023-03-14T00:32:30;16.30;;;9.47;;
59273;SDS011;45044;41.572;24.730;2023-03-14T00:34:56;26.10;;;13.70;;
59273;SDS011;45044;41.572;24.730;2023-03-14T00:37:23;15.70;;;9.13;;
59273;SDS011;45044;41.572;24.730;2023-03-14T00:39:51;14.47;;;9.17;;
59273;SDS011;45044;41.572;24.730;2023-03-14T00:42:18;14.30;;;8.13;;
59273;SDS011;45044;41.572;24.730;2023-03-14T00:44:45;16.07;;;8.70;;
59273;SDS011;45044;41.572;24.730;2023-03-14T00:47:11;15.93;;;9.20;;
59273;SDS011;45044;41.572;24.730;2023-03-14T00:49:38;15.30;;;9.40;;
59273;SDS011;45044;41.572;24.730;2023-03-14T00:52:05;18.73;;;10.00;;
59273;SDS011;45044;41.572;24.730;2023-03-14T00:54:32;17.00;;;9.27;;
59273;SDS011;45044;41.572;24.730;2023-03-14T00:56:58;14.37;;;8.33;;
59273;SDS011;45044;41.572;24.730;2023-03-14T00:59:25;11.57;;;6.37;;
59273;SDS011;45044;41.572;24.730;2023-03-14T01:01:52;14.17;;;7.80;;
59273;SDS011;45044;41.572;24.730;2023-03-14T01:04:19;12.23;;;8.27;;
59273;SDS011;45044;41.572;24.730;2023-03-14T01:06:46;12.47;;;8.10;;
59273;SDS011;45044;41.572;24.730;2023-03-14T01:09:13;12.97;;;8.13;;
59273;SDS011;45044;41.572;24.730;2023-03-14T01:11:39;11.43;;;6.80;;
59273;SDS011;45044;41.572;24.730;2023-03-14T01:14:06;12.77;;;6.63;;
59273;SDS011;45044;41.572;24.730;2023-03-14T01:16:33;11.53;;;6.50;;
59273;SDS011;45044;41.572;24.730;2023-03-14T01:19:01;15.57;;;7.20;;
59273;SDS011;45044;41.572;24.730;2023-03-14T01:21:33;13.80;;;7.03;;
59273;SDS011;45044;41.572;24.730;2023-03-14T01:24:01;25.63;;;13.63;;
59273;SDS011;45044;41.572;24.730;2023-03-14T01:26:31;22.83;;;13.50;;
59273;SDS011;45044;41.572;24.730;2023-03-14T01:28:59;17.93;;;10.83;;
59273;SDS011;45044;41.572;24.730;2023-03-14T01:31:26;14.93;;;9.60;;
59273;SDS011;45044;41.572;24.730;2023-03-14T01:33:54;16.33;;;9.47;;
59273;SDS011;45044;41.572;24.730;2023-03-14T01:36:21;18.60;;;9.13;;
59273;SDS011;45044;41.572;24.730;2023-03-14T01:38:47;14.80;;;8.53;;
59273;SDS011;45044;41.572;24.730;2023-03-14T01:41:15;19.87;;;11.20;;
59273;SDS011;45044;41.572;24.730;2023-03-14T01:43:45;24.03;;;12.50;;
59273;SDS011;45044;41.572;24.730;2023-03-14T01:46:34;21.20;;;11.80;;
59273;SDS011;45044;41.572;24.730;2023-03-14T01:51:53;13.93;;;7.70;;
59273;SDS011;45044;41.572;24.730;2023-03-14T01:54:31;14.13;;;6.63;;
59273;SDS011;45044;41.572;24.730;2023-03-14T01:59:51;10.83;;;5.53;;
59273;SDS011;45044;41.572;24.730;2023-03-14T02:02:22;17.07;;;9.13;;
59273;SDS011;45044;41.572;24.730;2023-03-14T02:04:53;10.73;;;5.90;;
59273;SDS011;45044;41.572;24.730;2023-03-14T02:07:26;9.70;;;6.10;;
59273;SDS011;45044;41.572;24.730;2023-03-14T02:10:01;12.73;;;7.60;;
59273;SDS011;45044;41.572;24.730;2023-03-14T02:12:30;12.13;;;7.80;;
59273;SDS011;45044;41.572;24.730;2023-03-14T02:14:56;14.87;;;7.60;;
59273;SDS011;45044;41.572;24.730;2023-03-14T02:17:24;12.53;;;5.77;;
59273;SDS011;45044;41.572;24.730;2023-03-14T02:20:13;9.80;;;5.13;;
59273;SDS011;45044;41.572;24.730;2023-03-14T02:22:43;11.47;;;5.33;;
59273;SDS011;45044;41.572;24.730;2023-03-14T02:28:03;9.93;;;6.03;;
59273;SDS011;45044;41.572;24.730;2023-03-14T02:30:31;12.83;;;5.97;;
59273;SDS011;45044;41.572;24.730;2023-03-14T02:33:07;12.80;;;8.63;;
59273;SDS011;45044;41.572;24.730;2023-03-14T02:35:37;10.13;;;5.37;;
59273;SDS011;45044;41.572;24.730;2023-03-14T02:38:17;9.90;;;5.60;;
59273;SDS011;45044;41.572;24.730;2023-03-14T02:40:49;9.20;;;5.27;;
59273;SDS011;45044;41.572;24.730;2023-03-14T02:43:17;8.57;;;5.30;;
59273;SDS011;45044;41.572;24.730;2023-03-14T02:45:44;10.90;;;5.30;;
59273;SDS011;45044;41.572;24.730;2023-03-14T02:48:17;9.60;;;5.13;;
59273;SDS011;45044;41.572;24.730;2023-03-14T02:50:47;9.20;;;5.43;;
59273;SDS011;45044;41.572;24.730;2023-03-14T02:53:17;13.30;;;6.33;;
59273;SDS011;45044;41.572;24.730;2023-03-14T02:55:47;13.27;;;6.73;;
59273;SDS011;45044;41.572;24.730;2023-03-14T02:58:15;9.87;;;5.37;;
59273;SDS011;45044;41.572;24.730;2023-03-14T03:00:42;9.13;;;4.63;;
59273;SDS011;45044;41.572;24.730;2023-03-14T03:03:09;8.67;;;4.53;;
59273;SDS011;45044;41.572;24.730;2023-03-14T03:05:36;14.57;;;7.97;;
59273;SDS011;45044;41.572;24.730;2023-03-14T03:08:03;14.57;;;7.67;;
59273;SDS011;45044;41.572;24.730;2023-03-14T03:10:30;20.37;;;8.97;;
59273;SDS011;45044;41.572;24.730;2023-03-14T03:12:57;11.30;;;6.20;;
59273;SDS011;45044;41.572;24.730;2023-03-14T03:15:24;10.60;;;5.90;;
59273;SDS011;45044;41.572;24.730;2023-03-14T03:17:51;12.20;;;6.50;;
59273;SDS011;45044;41.572;24.730;2023-03-14T03:20:18;14.33;;;8.00;;
59273;SDS011;45044;41.572;24.730;2023-03-14T03:22:44;15.50;;;8.50;;
59273;SDS011;45044;41.572;24.730;2023-03-14T03:25:11;13.83;;;7.37;;
59273;SDS011;45044;41.572;24.730;2023-03-14T03:27:38;17.37;;;7.47;;
59273;SDS011;45044;41.572;24.730;2023-03-14T03:30:05;14.27;;;7.13;;
59273;SDS011;45044;41.572;24.730;2023-03-14T03:32:33;12.77;;;7.03;;
59273;SDS011;45044;41.572;24.730;2023-03-14T03:35:01;12.70;;;6.90;;
59273;SDS011;45044;41.572;24.730;2023-03-14T03:37:31;13.03;;;6.07;;
59273;SDS011;45044;41.572;24.730;2023-03-14T03:39:59;13.57;;;5.70;;
59273;SDS011;45044;41.572;24.730;2023-03-14T03:42:27;11.20;;;5.90;;
59273;SDS011;45044;41.572;24.730;2023-03-14T03:44:55;9.47;;;5.57;;
59273;SDS011;45044;41.572;24.730;2023-03-14T03:47:22;15.93;;;9.10;;
59273;SDS011;45044;41.572;24.730;2023-03-14T03:49:49;14.90;;;8.27;;
59273;SDS011;45044;41.572;24.730;2023-03-14T03:52:16;24.47;;;12.10;;
59273;SDS011;45044;41.572;24.730;2023-03-14T03:54:44;28.90;;;16.23;;
59273;SDS011;45044;41.572;24.730;2023-03-14T03:57:10;28.30;;;16.00;;
59273;SDS011;45044;41.572;24.730;2023-03-14T03:59:38;19.23;;;11.17;;
59273;SDS011;45044;41.572;24.730;2023-03-14T04:02:06;16.47;;;9.60;;
59273;SDS011;45044;41.572;24.730;2023-03-14T04:04:34;19.10;;;10.87;;
59273;SDS011;45044;41.572;24.730;2023-03-14T04:07:01;19.80;;;10.93;;
59273;SDS011;45044;41.572;24.730;2023-03-14T04:09:27;17.10;;;9.97;;
59273;SDS011;45044;41.572;24.730;2023-03-14T04:11:54;16.03;;;8.73;;
59273;SDS011;45044;41.572;24.730;2023-03-14T04:14:21;17.20;;;9.23;;
59273;SDS011;45044;41.572;24.730;2023-03-14T04:16:49;14.20;;;7.23;;
59273;SDS011;45044;41.572;24.730;2023-03-14T04:19:15;13.20;;;7.60;;
59273;SDS011;45044;41.572;24.730;2023-03-14T04:21:42;13.80;;;7.63;;
59273;SDS011;45044;41.572;24.730;2023-03-14T04:24:11;14.00;;;7.60;;
59273;SDS011;45044;41.572;24.730;2023-03-14T04:26:38;15.80;;;9.00;;
59273;SDS011;45044;41.572;24.730;2023-03-14T04:29:04;18.73;;;10.50;;
59273;SDS011;45044;41.572;24.730;2023-03-14T04:31:31;25.90;;;15.13;;
59273;SDS011;45044;41.572;24.730;2023-03-14T04:33:58;30.80;;;17.73;;
59273;SDS011;45044;41.572;24.730;2023-03-14T04:36:25;26.67;;;16.80;;
59273;SDS011;45044;41.572;24.730;2023-03-14T04:38:52;31.40;;;21.07;;
59273;SDS011;45044;41.572;24.730;2023-03-14T04:41:19;27.47;;;17.20;;
59273;SDS011;45044;41.572;24.730;2023-03-14T04:43:46;30.73;;;18.43;;
59273;SDS011;45044;41.572;24.730;2023-03-14T04:46:12;24.87;;;16.67;;
59273;SDS011;45044;41.572;24.730;2023-03-14T04:48:39;24.93;;;15.50;;
59273;SDS011;45044;41.572;24.730;2023-03-14T04:51:06;25.37;;;16.60;;
59273;SDS011;45044;41.572;24.730;2023-03-14T04:53:33;29.13;;;18.63;;
59273;SDS011;45044;41.572;24.730;2023-03-14T04:56:02;18.50;;;11.97;;
59273;SDS011;45044;41.572;24.730;2023-03-14T04:58:29;18.80;;;10.97;;
59273;SDS011;45044;41.572;24.730;2023-03-14T05:00:56;24.40;;;16.17;;
59273;SDS011;45044;41.572;24.730;2023-03-14T05:03:28;28.10;;;19.60;;
59273;SDS011;45044;41.572;24.730;2023-03-14T05:05:55;33.33;;;24.90;;
59273;SDS011;45044;41.572;24.730;2023-03-14T05:08:23;40.90;;;30.60;;
59273;SDS011;45044;41.572;24.730;2023-03-14T05:10:53;39.87;;;30.43;;
59273;SDS011;45044;41.572;24.730;2023-03-14T05:13:21;44.00;;;28.00;;
59273;SDS011;45044;41.572;24.730;2023-03-14T05:15:48;45.13;;;28.33;;
59273;SDS011;45044;41.572;24.730;2023-03-14T05:18:15;45.53;;;28.80;;
59273;SDS011;45044;41.572;24.730;2023-03-14T05:20:41;44.90;;;28.93;;
59273;SDS011;45044;41.572;24.730;2023-03-14T05:23:11;48.83;;;32.57;;
59273;SDS011;45044;41.572;24.730;2023-03-14T05:25:38;45.57;;;31.10;;
59273;SDS011;45044;41.572;24.730;2023-03-14T05:28:04;45.63;;;29.60;;
59273;SDS011;45044;41.572;24.730;2023-03-14T05:30:31;46.03;;;29.57;;
59273;SDS011;45044;41.572;24.730;2023-03-14T05:33:00;45.47;;;29.37;;
59273;SDS011;45044;41.572;24.730;2023-03-14T05:35:26;42.30;;;29.80;;
59273;SDS011;45044;41.572;24.730;2023-03-14T05:37:53;44.23;;;30.53;;
59273;SDS011;45044;41.572;24.730;2023-03-14T05:40:20;36.57;;;25.87;;
59273;SDS011;45044;41.572;24.730;2023-03-14T05:42:47;48.67;;;29.20;;
59273;SDS011;45044;41.572;24.730;2023-03-14T05:45:13;56.53;;;32.37;;
59273;SDS011;45044;41.572;24.730;2023-03-14T05:47:40;52.80;;;35.30;;
59273;SDS011;45044;41.572;24.730;2023-03-14T05:50:09;65.27;;;40.00;;
59273;SDS011;45044;41.572;24.730;2023-03-14T05:52:36;64.13;;;39.30;;
59273;SDS011;45044;41.572;24.730;2023-03-14T05:55:03;60.20;;;37.87;;
59273;SDS011;45044;41.572;24.730;2023-03-14T05:57:30;67.97;;;38.93;;
59273;SDS011;45044;41.572;24.730;2023-03-14T05:59:57;64.10;;;40.80;;
59273;SDS011;45044;41.572;24.730;2023-03-14T06:02:24;79.60;;;49.50;;
59273;SDS011;45044;41.572;24.730;2023-03-14T06:04:50;129.37;;;80.77;;
59273;SDS011;45044;41.572;24.730;2023-03-14T06:07:18;156.87;;;92.67;;
59273;SDS011;45044;41.572;24.730;2023-03-14T06:09:45;157.37;;;93.73;;
59273;SDS011;45044;41.572;24.730;2023-03-14T06:12:11;161.63;;;87.37;;
59273;SDS011;45044;41.572;24.730;2023-03-14T06:14:38;115.07;;;72.47;;
59273;SDS011;45044;41.572;24.730;2023-03-14T06:17:05;85.80;;;53.72;;
59273;SDS011;45044;41.572;24.730;2023-03-14T06:19:32;86.88;;;53.00;;
59273;SDS011;45044;41.572;24.730;2023-03-14T06:21:59;80.32;;;54.88;;
59273;SDS011;45044;41.572;24.730;2023-03-14T06:24:25;64.93;;;46.55;;
59273;SDS011;45044;41.572;24.730;2023-03-14T06:26:53;57.03;;;39.65;;
59273;SDS011;45044;41.572;24.730;2023-03-14T06:29:20;50.75;;;37.15;;
59273;SDS011;45044;41.572;24.730;2023-03-14T06:31:47;50.25;;;34.78;;
59273;SDS011;45044;41.572;24.730;2023-03-14T06:34:13;49.40;;;32.15;;
59273;SDS011;45044;41.572;24.730;2023-03-14T06:36:40;47.13;;;35.38;;
59273;SDS011;45044;41.572;24.730;2023-03-14T06:39:07;44.60;;;33.92;;
59273;SDS011;45044;41.572;24.730;2023-03-14T06:41:34;44.17;;;30.65;;
59273;SDS011;45044;41.572;24.730;2023-03-14T06:44:00;37.30;;;27.15;;
59273;SDS011;45044;41.572;24.730;2023-03-14T06:46:27;31.40;;;22.55;;
59273;SDS011;45044;41.572;24.730;2023-03-14T06:48:54;33.47;;;23.92;;
59273;SDS011;45044;41.572;24.730;2023-03-14T06:51:21;26.92;;;21.58;;
59273;SDS011;45044;41.572;24.730;2023-03-14T06:53:48;32.13;;;22.70;;
59273;SDS011;45044;41.572;24.730;2023-03-14T06:56:14;30.13;;;23.30;;
59273;SDS011;45044;41.572;24.730;2023-03-14T06:58:44;32.40;;;24.17;;
59273;SDS011;45044;41.572;24.730;2023-03-14T07:01:25;32.03;;;24.05;;
59273;SDS011;45044;41.572;24.730;2023-03-14T07:03:54;29.98;;;24.23;;
59273;SDS011;45044;41.572;24.730;2023-03-14T07:06:21;24.88;;;20.15;;
59273;SDS011;45044;41.572;24.730;2023-03-14T07:08:49;24.58;;;19.85;;
59273;SDS011;45044;41.572;24.730;2023-03-14T07:11:16;25.63;;;20.30;;
59273;SDS011;45044;41.572;24.730;2023-03-14T07:13:43;24.92;;;18.42;;
59273;SDS011;45044;41.572;24.730;2023-03-14T07:16:09;19.90;;;14.65;;
59273;SDS011;45044;41.572;24.730;2023-03-14T07:18:36;10.40;;;6.40;;
59273;SDS011;45044;41.572;24.730;2023-03-14T07:21:04;15.10;;;9.93;;
59273;SDS011;45044;41.572;24.730;2023-03-14T07:23:32;13.00;;;9.77;;
59273;SDS011;45044;41.572;24.730;2023-03-14T07:25:59;13.60;;;11.90;;
59273;SDS011;45044;41.572;24.730;2023-03-14T07:28:26;18.42;;;15.57;;
59273;SDS011;45044;41.572;24.730;2023-03-14T07:30:53;19.02;;;14.35;;
59273;SDS011;45044;41.572;24.730;2023-03-14T07:33:21;13.45;;;10.15;;
59273;SDS011;45044;41.572;24.730;2023-03-14T07:35:48;17.15;;;13.70;;
59273;SDS011;45044;41.572;24.730;2023-03-14T07:38:15;15.98;;;11.90;;
59273;SDS011;45044;41.572;24.730;2023-03-14T07:40:42;17.42;;;12.50;;
59273;SDS011;45044;41.572;24.730;2023-03-14T07:43:09;12.30;;;8.40;;
59273;SDS011;45044;41.572;24.730;2023-03-14T07:45:35;15.15;;;8.75;;
59273;SDS011;45044;41.572;24.730;2023-03-14T07:48:08;15.07;;;7.18;;
59273;SDS011;45044;41.572;24.730;2023-03-14T07:50:34;10.57;;;5.85;;
59273;SDS011;45044;41.572;24.730;2023-03-14T07:53:01;14.20;;;9.50;;
59273;SDS011;45044;41.572;24.730;2023-03-14T07:55:28;21.10;;;14.85;;
59273;SDS011;45044;41.572;24.730;2023-03-14T07:57:55;20.52;;;14.43;;
59273;SDS011;45044;41.572;24.730;2023-03-14T08:00:21;9.68;;;4.40;;
59273;SDS011;45044;41.572;24.730;2023-03-14T08:02:48;13.48;;;8.02;;
59273;SDS011;45044;41.572;24.730;2023-03-14T08:05:15;12.98;;;6.15;;
59273;SDS011;45044;41.572;24.730;2023-03-14T08:07:42;11.63;;;7.28;;
59273;SDS011;45044;41.572;24.730;2023-03-14T08:10:09;12.48;;;7.65;;
59273;SDS011;45044;41.572;24.730;2023-03-14T08:12:36;13.85;;;8.43;;
59273;SDS011;45044;41.572;24.730;2023-03-14T08:15:04;8.00;;;3.15;;
59273;SDS011;45044;41.572;24.730;2023-03-14T08:17:31;7.75;;;3.00;;
59273;SDS011;45044;41.572;24.730;2023-03-14T08:19:58;15.48;;;6.13;;
59273;SDS011;45044;41.572;24.730;2023-03-14T08:22:25;10.93;;;4.00;;
59273;SDS011;45044;41.572;24.730;2023-03-14T08:24:51;7.38;;;3.42;;
59273;SDS011;45044;41.572;24.730;2023-03-14T08:27:18;13.38;;;5.07;;
59273;SDS011;45044;41.572;24.730;2023-03-14T08:29:45;6.53;;;3.42;;
59273;SDS011;45044;41.572;24.730;2023-03-14T08:32:12;8.50;;;3.50;;
59273;SDS011;45044;41.572;24.730;2023-03-14T08:34:38;9.73;;;4.40;;
59273;SDS011;45044;41.572;24.730;2023-03-14T08:37:05;4.68;;;2.30;;
59273;SDS011;45044;41.572;24.730;2023-03-14T08:39:48;6.60;;;2.42;;
59273;SDS011;45044;41.572;24.730;2023-03-14T08:42:15;12.13;;;4.90;;
59273;SDS011;45044;41.572;24.730;2023-03-14T08:44:42;7.80;;;2.22;;
59273;SDS011;45044;41.572;24.730;2023-03-14T08:47:09;7.20;;;3.60;;
59273;SDS011;45044;41.572;24.730;2023-03-14T08:49:36;4.47;;;2.30;;
59273;SDS011;45044;41.572;24.730;2023-03-14T08:52:03;4.68;;;2.47;;
59273;SDS011;45044;41.572;24.730;2023-03-14T08:54:31;3.03;;;1.40;;
59273;SDS011;45044;41.572;24.730;2023-03-14T08:56:58;3.53;;;2.08;;
59273;SDS011;45044;41.572;24.730;2023-03-14T08:59:24;3.15;;;1.98;;
59273;SDS011;45044;41.572;24.730;2023-03-14T09:01:51;4.97;;;2.47;;
59273;SDS011;45044;41.572;24.730;2023-03-14T09:04:18;6.45;;;2.70;;
59273;SDS011;45044;41.572;24.730;2023-03-14T09:06:45;4.47;;;2.13;;
59273;SDS011;45044;41.572;24.730;2023-03-14T09:09:12;2.30;;;1.42;;
59273;SDS011;45044;41.572;24.730;2023-03-14T09:11:39;5.88;;;2.70;;
59273;SDS011;45044;41.572;24.730;2023-03-14T09:14:06;10.43;;;5.68;;
59273;SDS011;45044;41.572;24.730;2023-03-14T09:16:33;4.38;;;2.40;;
59273;SDS011;45044;41.572;24.730;2023-03-14T09:19:00;6.15;;;2.83;;
59273;SDS011;45044;41.572;24.730;2023-03-14T09:21:27;5.72;;;2.20;;
59273;SDS011;45044;41.572;24.730;2023-03-14T09:23:53;3.15;;;1.60;;
59273;SDS011;45044;41.572;24.730;2023-03-14T09:26:20;4.07;;;1.55;;
59273;SDS011;45044;41.572;24.730;2023-03-14T09:28:47;6.13;;;3.05;;
59273;SDS011;45044;41.572;24.730;2023-03-14T09:31:14;11.07;;;5.22;;
59273;SDS011;45044;41.572;24.730;2023-03-14T09:33:41;4.47;;;1.75;;
59273;SDS011;45044;41.572;24.730;2023-03-14T09:36:07;3.38;;;1.75;;
59273;SDS011;45044;41.572;24.730;2023-03-14T09:38:34;5.72;;;2.33;;
59273;SDS011;45044;41.572;24.730;2023-03-14T09:41:02;8.88;;;3.78;;
59273;SDS011;45044;41.572;24.730;2023-03-14T09:43:38;7.95;;;4.05;;
59273;SDS011;45044;41.572;24.730;2023-03-14T09:46:08;6.18;;;2.72;;
59273;SDS011;45044;41.572;24.730;2023-03-14T09:48:37;9.48;;;4.45;;
59273;SDS011;45044;41.572;24.730;2023-03-14T09:51:05;3.10;;;1.85;;
59273;SDS011;45044;41.572;24.730;2023-03-14T09:53:43;3.60;;;1.90;;
59273;SDS011;45044;41.572;24.730;2023-03-14T09:58:48;7.40;;;2.80;;
59273;SDS011;45044;41.572;24.730;2023-03-14T10:01:20;5.38;;;2.67;;
59273;SDS011;45044;41.572;24.730;2023-03-14T10:03:54;5.70;;;2.47;;
59273;SDS011;45044;41.572;24.730;2023-03-14T10:06:23;4.15;;;2.08;;
59273;SDS011;45044;41.572;24.730;2023-03-14T10:08:53;5.40;;;2.22;;
59273;SDS011;45044;41.572;24.730;2023-03-14T10:11:21;5.00;;;1.88;;
59273;SDS011;45044;41.572;24.730;2023-03-14T10:16:31;6.47;;;2.47;;
59273;SDS011;45044;41.572;24.730;2023-03-14T10:19:04;4.00;;;2.20;;
59273;SDS011;45044;41.572;24.730;2023-03-14T10:21:39;7.93;;;3.65;;
59273;SDS011;45044;41.572;24.730;2023-03-14T10:26:57;5.13;;;2.08;;
59273;SDS011;45044;41.572;24.730;2023-03-14T10:29:29;5.25;;;2.20;;
59273;SDS011;45044;41.572;24.730;2023-03-14T10:32:02;4.97;;;1.83;;
59273;SDS011;45044;41.572;24.730;2023-03-14T10:34:32;6.78;;;2.97;;
59273;SDS011;45044;41.572;24.730;2023-03-14T10:37:05;6.13;;;2.55;;
59273;SDS011;45044;41.572;24.730;2023-03-14T10:39:44;5.25;;;2.05;;
59273;SDS011;45044;41.572;24.730;2023-03-14T10:45:02;3.92;;;1.92;;
59273;SDS011;45044;41.572;24.730;2023-03-14T10:47:33;12.15;;;6.50;;
59273;SDS011;45044;41.572;24.730;2023-03-14T10:52:56;6.07;;;2.05;;
59273;SDS011;45044;41.572;24.730;2023-03-14T10:55:29;17.85;;;8.43;;
59273;SDS011;45044;41.572;24.730;2023-03-14T10:58:26;7.15;;;3.45;;
59273;SDS011;45044;41.572;24.730;2023-03-14T11:03:29;11.88;;;5.10;;
59273;SDS011;45044;41.572;24.730;2023-03-14T11:06:23;9.75;;;3.50;;
59273;SDS011;45044;41.572;24.730;2023-03-14T11:11:39;9.82;;;3.33;;
59273;SDS011;45044;41.572;24.730;2023-03-14T11:14:16;14.75;;;5.97;;
59273;SDS011;45044;41.572;24.730;2023-03-14T11:28:22;14.77;;;5.35;;
59273;SDS011;45044;41.572;24.730;2023-03-14T11:31:03;4.20;;;1.80;;
59273;SDS011;45044;41.572;24.730;2023-03-14T11:33:46;16.83;;;7.88;;
59273;SDS011;45044;41.572;24.730;2023-03-14T11:36:29;9.98;;;3.85;;
59273;SDS011;45044;41.572;24.730;2023-03-14T11:39:00;8.88;;;4.38;;
59273;SDS011;45044;41.572;24.730;2023-03-14T11:41:30;4.85;;;2.25;;
59273;SDS011;45044;41.572;24.730;2023-03-14T11:44:03;9.02;;;3.88;;
59273;SDS011;45044;41.572;24.730;2023-03-14T11:46:41;4.70;;;2.35;;
59273;SDS011;45044;41.572;24.730;2023-03-14T11:49:24;10.25;;;4.30;;
59273;SDS011;45044;41.572;24.730;2023-03-14T11:51:53;7.28;;;2.70;;
59273;SDS011;45044;41.572;24.730;2023-03-14T11:54:41;4.45;;;2.28;;
59273;SDS011;45044;41.572;24.730;2023-03-14T11:57:17;8.48;;;3.38;;
59273;SDS011;45044;41.572;24.730;2023-03-14T12:10:49;6.60;;;2.92;;
59273;SDS011;45044;41.572;24.730;2023-03-14T12:13:20;6.95;;;3.20;;
59273;SDS011;45044;41.572;24.730;2023-03-14T12:15:49;6.13;;;2.72;;
59273;SDS011;45044;41.572;24.730;2023-03-14T12:18:31;4.97;;;2.67;;
59273;SDS011;45044;41.572;24.730;2023-03-14T12:21:01;6.03;;;2.83;;
59273;SDS011;45044;41.572;24.730;2023-03-14T12:23:35;4.18;;;2.22;;
59273;SDS011;45044;41.572;24.730;2023-03-14T12:28:41;5.22;;;2.40;;
59273;SDS011;45044;41.572;24.730;2023-03-14T12:37:06;5.43;;;2.60;;
59273;SDS011;45044;41.572;24.730;2023-03-14T12:43:01;7.82;;;3.53;;
59273;SDS011;45044;41.572;24.730;2023-03-14T12:45:31;5.72;;;2.55;;
59273;SDS011;45044;41.572;24.730;2023-03-14T12:48:33;7.32;;;3.30;;
59273;SDS011;45044;41.572;24.730;2023-03-14T12:50:56;9.10;;;4.10;;
59273;SDS011;45044;41.572;24.730;2023-03-14T12:56:17;6.30;;;2.70;;
59273;SDS011;45044;41.572;24.730;2023-03-14T12:58:59;3.92;;;1.90;;
59273;SDS011;45044;41.572;24.730;2023-03-14T13:01:36;4.97;;;2.22;;
59273;SDS011;45044;41.572;24.730;2023-03-14T13:04:04;7.47;;;3.63;;
59273;SDS011;45044;41.572;24.730;2023-03-14T13:06:47;9.10;;;4.05;;
59273;SDS011;45044;41.572;24.730;2023-03-14T13:12:13;7.75;;;3.35;;
59273;SDS011;45044;41.572;24.730;2023-03-14T13:14:44;7.32;;;3.03;;
59273;SDS011;45044;41.572;24.730;2023-03-14T13:17:14;5.50;;;2.53;;
59273;SDS011;45044;41.572;24.730;2023-03-14T13:20:05;4.47;;;1.63;;
59273;SDS011;45044;41.572;24.730;2023-03-14T13:22:39;7.30;;;2.30;;
59273;SDS011;45044;41.572;24.730;2023-03-14T13:25:13;3.08;;;2.05;;
59273;SDS011;45044;41.572;24.730;2023-03-14T13:27:40;4.25;;;1.50;;
59273;SDS011;45044;41.572;24.730;2023-03-14T13:30:15;2.95;;;1.70;;
59273;SDS011;45044;41.572;24.730;2023-03-14T13:32:48;4.10;;;2.05;;
59273;SDS011;45044;41.572;24.730;2023-03-14T13:35:23;5.57;;;2.83;;
59273;SDS011;45044;41.572;24.730;2023-03-14T13:37:54;2.42;;;1.50;;
59273;SDS011;45044;41.572;24.730;2023-03-14T13:40:36;4.45;;;2.00;;
59273;SDS011;45044;41.572;24.730;2023-03-14T13:43:05;5.30;;;2.13;;
59273;SDS011;45044;41.572;24.730;2023-03-14T13:48:25;3.40;;;1.92;;
59273;SDS011;45044;41.572;24.730;2023-03-14T13:50:56;2.40;;;1.42;;
59273;SDS011;45044;41.572;24.730;2023-03-14T13:53:26;7.50;;;2.83;;
59273;SDS011;45044;41.572;24.730;2023-03-14T13:55:53;4.85;;;2.10;;
59273;SDS011;45044;41.572;24.730;2023-03-14T13:58:25;4.13;;;2.08;;
59273;SDS011;45044;41.572;24.730;2023-03-14T14:00:54;3.55;;;1.83;;
59273;SDS011;45044;41.572;24.730;2023-03-14T14:03:27;3.20;;;1.90;;
59273;SDS011;45044;41.572;24.730;2023-03-14T14:05:57;3.33;;;1.65;;
59273;SDS011;45044;41.572;24.730;2023-03-14T14:08:25;4.47;;;2.55;;
59273;SDS011;45044;41.572;24.730;2023-03-14T14:10:54;3.13;;;1.70;;
59273;SDS011;45044;41.572;24.730;2023-03-14T14:13:25;3.55;;;1.90;;
59273;SDS011;45044;41.572;24.730;2023-03-14T14:15:57;3.28;;;1.80;;
59273;SDS011;45044;41.572;24.730;2023-03-14T14:18:27;3.63;;;1.70;;
59273;SDS011;45044;41.572;24.730;2023-03-14T14:20:57;5.57;;;2.88;;
59273;SDS011;45044;41.572;24.730;2023-03-14T14:23:27;3.38;;;2.00;;
59273;SDS011;45044;41.572;24.730;2023-03-14T14:25:56;4.50;;;1.70;;
59273;SDS011;45044;41.572;24.730;2023-03-14T14:31:02;2.70;;;1.40;;
59273;SDS011;45044;41.572;24.730;2023-03-14T14:33:42;7.90;;;3.75;;
59273;SDS011;45044;41.572;24.730;2023-03-14T14:36:21;6.60;;;3.10;;
59273;SDS011;45044;41.572;24.730;2023-03-14T14:38:50;5.32;;;2.38;;
59273;SDS011;45044;41.572;24.730;2023-03-14T14:41:19;2.78;;;1.75;;
59273;SDS011;45044;41.572;24.730;2023-03-14T14:43:46;2.70;;;1.58;;
59273;SDS011;45044;41.572;24.730;2023-03-14T14:46:15;5.55;;;2.20;;
59273;SDS011;45044;41.572;24.730;2023-03-14T14:48:45;4.53;;;2.00;;
59273;SDS011;45044;41.572;24.730;2023-03-14T14:51:22;7.45;;;3.10;;
59273;SDS011;45044;41.572;24.730;2023-03-14T14:53:59;6.82;;;3.92;;
59273;SDS011;45044;41.572;24.730;2023-03-14T14:56:29;4.75;;;2.45;;
59273;SDS011;45044;41.572;24.730;2023-03-14T14:59:00;3.67;;;1.70;;
59273;SDS011;45044;41.572;24.730;2023-03-14T15:01:37;4.45;;;2.80;;
59273;SDS011;45044;41.572;24.730;2023-03-14T15:04:09;9.57;;;3.45;;
59273;SDS011;45044;41.572;24.730;2023-03-14T15:06:43;10.23;;;5.80;;
59273;SDS011;45044;41.572;24.730;2023-03-14T15:09:12;4.65;;;2.83;;
59273;SDS011;45044;41.572;24.730;2023-03-14T15:11:39;5.75;;;3.33;;
59273;SDS011;45044;41.572;24.730;2023-03-14T15:14:06;11.18;;;6.15;;
59273;SDS011;45044;41.572;24.730;2023-03-14T15:16:33;9.82;;;4.75;;
59273;SDS011;45044;41.572;24.730;2023-03-14T15:19:01;7.03;;;3.65;;
59273;SDS011;45044;41.572;24.730;2023-03-14T15:21:49;6.65;;;3.00;;
59273;SDS011;45044;41.572;24.730;2023-03-14T15:24:17;8.35;;;4.55;;
59273;SDS011;45044;41.572;24.730;2023-03-14T15:26:43;9.48;;;5.80;;
59273;SDS011;45044;41.572;24.730;2023-03-14T15:29:10;8.90;;;4.03;;
59273;SDS011;45044;41.572;24.730;2023-03-14T15:31:39;8.60;;;4.00;;
59273;SDS011;45044;41.572;24.730;2023-03-14T15:34:06;10.73;;;5.60;;
59273;SDS011;45044;41.572;24.730;2023-03-14T15:36:34;15.82;;;10.30;;
59273;SDS011;45044;41.572;24.730;2023-03-14T15:39:03;8.38;;;5.00;;
59273;SDS011;45044;41.572;24.730;2023-03-14T15:41:32;9.02;;;5.43;;
59273;SDS011;45044;41.572;24.730;2023-03-14T15:43:58;10.02;;;6.35;;
59273;SDS011;45044;41.572;24.730;2023-03-14T15:46:25;5.97;;;3.75;;
59273;SDS011;45044;41.572;24.730;2023-03-14T15:48:55;6.00;;;2.90;;